sensor_id;sensor_type;location;lat;lon;timestamp;temperature;humidity
20422;DHT22;10370;53.102;18.034;2022-07-05T00:04:26;17.50;99.90
20422;DHT22;10370;53.102;18.034;2022-07-05T00:09:57;17.30;99.90
20422;DHT22;10370;53.102;18.034;2022-07-05T00:15:18;17.10;99.90
20422;DHT22;10370;53.102;18.034;2022-07-05T00:20:39;17.00;99.90
20422;DHT22;10370;53.102;18.034;2022-07-05T00:26:00;16.70;99.90
20422;DHT22;10370;53.102;18.034;2022-07-05T00:31:21;16.60;99.90
20422;DHT22;10370;53.102;18.034;2022-07-05T00:36:42;16.40;99.90
20422;DHT22;10370;53.102;18.034;2022-07-05T00:42:03;16.30;99.90
20422;DHT22;10370;53.102;18.034;2022-07-05T00:47:24;16.20;99.90
20422;DHT22;10370;53.102;18.034;2022-07-05T00:52:45;16.20;99.90
20422;DHT22;10370;53.102;18.034;2022-07-05T00:58:06;16.10;99.90
20422;DHT22;10370;53.102;18.034;2022-07-05T01:03:28;15.90;99.90
20422;DHT22;10370;53.102;18.034;2022-07-05T01:08:49;15.80;99.90
20422;DHT22;10370;53.102;18.034;2022-07-05T01:14:17;15.80;99.90
20422;DHT22;10370;53.102;18.034;2022-07-05T01:19:37;15.70;99.90
20422;DHT22;10370;53.102;18.034;2022-07-05T01:24:59;15.60;99.90
20422;DHT22;10370;53.102;18.034;2022-07-05T01:30:20;15.40;99.90
20422;DHT22;10370;53.102;18.034;2022-07-05T01:35:41;15.40;99.90
20422;DHT22;10370;53.102;18.034;2022-07-05T01:41:03;15.30;99.90
20422;DHT22;10370;53.102;18.034;2022-07-05T01:46:26;15.20;99.90
20422;DHT22;10370;53.102;18.034;2022-07-05T01:51:57;15.00;99.90
20422;DHT22;10370;53.102;18.034;2022-07-05T01:57:19;15.00;99.90
20422;DHT22;10370;53.102;18.034;2022-07-05T02:02:44;14.90;99.90
20422;DHT22;10370;53.102;18.034;2022-07-05T02:08:05;14.80;99.90
20422;DHT22;10370;53.102;18.034;2022-07-05T02:13:26;14.70;99.90
20422;DHT22;10370;53.102;18.034;2022-07-05T02:18:47;14.60;99.90
20422;DHT22;10370;53.102;18.034;2022-07-05T02:24:08;14.60;99.90
20422;DHT22;10370;53.102;18.034;2022-07-05T02:29:29;14.60;99.90
20422;DHT22;10370;53.102;18.034;2022-07-05T02:34:49;14.50;99.90
20422;DHT22;10370;53.102;18.034;2022-07-05T02:40:12;14.50;99.90
20422;DHT22;10370;53.102;18.034;2022-07-05T02:45:35;14.40;99.90
20422;DHT22;10370;53.102;18.034;2022-07-05T02:51:00;14.30;99.90
20422;DHT22;10370;53.102;18.034;2022-07-05T02:56:27;14.20;99.90
20422;DHT22;10370;53.102;18.034;2022-07-05T03:01:48;14.20;99.90
20422;DHT22;10370;53.102;18.034;2022-07-05T03:07:09;14.40;99.90
20422;DHT22;10370;53.102;18.034;2022-07-05T03:12:30;14.40;99.90
20422;DHT22;10370;53.102;18.034;2022-07-05T03:17:51;14.60;99.90
20422;DHT22;10370;53.102;18.034;2022-07-05T03:23:11;14.70;99.90
20422;DHT22;10370;53.102;18.034;2022-07-05T03:28:32;14.90;99.90
20422;DHT22;10370;53.102;18.034;2022-07-05T03:33:54;15.20;99.90
20422;DHT22;10370;53.102;18.034;2022-07-05T03:39:15;15.50;99.90
20422;DHT22;10370;53.102;18.034;2022-07-05T03:44:36;15.60;99.90
20422;DHT22;10370;53.102;18.034;2022-07-05T03:49:57;16.00;99.90
20422;DHT22;10370;53.102;18.034;2022-07-05T03:55:18;16.20;99.90
20422;DHT22;10370;53.102;18.034;2022-07-05T04:00:39;16.30;99.90
20422;DHT22;10370;53.102;18.034;2022-07-05T04:06:00;16.20;99.90
20422;DHT22;10370;53.102;18.034;2022-07-05T04:11:21;16.20;99.90
20422;DHT22;10370;53.102;18.034;2022-07-05T04:16:42;16.30;99.90
20422;DHT22;10370;53.102;18.034;2022-07-05T04:22:04;16.30;99.90
20422;DHT22;10370;53.102;18.034;2022-07-05T04:27:24;16.40;99.90
20422;DHT22;10370;53.102;18.034;2022-07-05T04:32:45;16.60;99.90
20422;DHT22;10370;53.102;18.034;2022-07-05T04:38:06;16.70;99.90
20422;DHT22;10370;53.102;18.034;2022-07-05T04:43:27;16.90;99.90
20422;DHT22;10370;53.102;18.034;2022-07-05T04:48:49;17.20;99.90
20422;DHT22;10370;53.102;18.034;2022-07-05T04:54:10;17.40;99.90
20422;DHT22;10370;53.102;18.034;2022-07-05T04:59:31;17.90;99.90
20422;DHT22;10370;53.102;18.034;2022-07-05T05:04:52;18.90;99.90
20422;DHT22;10370;53.102;18.034;2022-07-05T05:10:13;21.30;99.90
20422;DHT22;10370;53.102;18.034;2022-07-05T05:15:34;22.80;99.90
20422;DHT22;10370;53.102;18.034;2022-07-05T05:20:55;23.90;99.90
20422;DHT22;10370;53.102;18.034;2022-07-05T05:26:18;23.60;99.90
20422;DHT22;10370;53.102;18.034;2022-07-05T05:31:39;23.80;99.90
20422;DHT22;10370;53.102;18.034;2022-07-05T05:37:00;25.30;99.90
20422;DHT22;10370;53.102;18.034;2022-07-05T05:42:21;25.70;99.90
20422;DHT22;10370;53.102;18.034;2022-07-05T05:53:11;25.70;99.90
20422;DHT22;10370;53.102;18.034;2022-07-05T05:58:31;28.20;99.90
20422;DHT22;10370;53.102;18.034;2022-07-05T06:03:52;30.80;99.90
20422;DHT22;10370;53.102;18.034;2022-07-05T06:09:13;31.00;96.50
20422;DHT22;10370;53.102;18.034;2022-07-05T06:14:34;30.90;95.10
20422;DHT22;10370;53.102;18.034;2022-07-05T06:19:55;30.20;95.60
20422;DHT22;10370;53.102;18.034;2022-07-05T06:25:16;29.00;97.70
20422;DHT22;10370;53.102;18.034;2022-07-05T06:30:43;27.40;99.90
20422;DHT22;10370;53.102;18.034;2022-07-05T06:36:04;25.70;99.90
20422;DHT22;10370;53.102;18.034;2022-07-05T06:41:25;24.60;99.90
20422;DHT22;10370;53.102;18.034;2022-07-05T06:46:46;23.70;99.90
20422;DHT22;10370;53.102;18.034;2022-07-05T06:52:07;23.60;99.90
20422;DHT22;10370;53.102;18.034;2022-07-05T06:57:28;23.50;99.90
20422;DHT22;10370;53.102;18.034;2022-07-05T07:02:50;23.30;99.90
20422;DHT22;10370;53.102;18.034;2022-07-05T07:08:11;23.30;99.90
20422;DHT22;10370;53.102;18.034;2022-07-05T07:13:50;23.30;99.90
20422;DHT22;10370;53.102;18.034;2022-07-05T07:19:11;23.40;99.90
20422;DHT22;10370;53.102;18.034;2022-07-05T07:24:34;23.40;99.90
20422;DHT22;10370;53.102;18.034;2022-07-05T07:29:55;23.60;99.90
20422;DHT22;10370;53.102;18.034;2022-07-05T07:35:16;23.70;99.90
20422;DHT22;10370;53.102;18.034;2022-07-05T07:40:37;23.60;99.90
20422;DHT22;10370;53.102;18.034;2022-07-05T07:45:58;23.60;99.90
20422;DHT22;10370;53.102;18.034;2022-07-05T07:51:19;23.50;99.90
20422;DHT22;10370;53.102;18.034;2022-07-05T07:56:42;23.30;99.90
20422;DHT22;10370;53.102;18.034;2022-07-05T08:02:03;23.40;99.90
20422;DHT22;10370;53.102;18.034;2022-07-05T08:07:24;23.50;99.90
20422;DHT22;10370;53.102;18.034;2022-07-05T08:12:45;23.50;99.90
20422;DHT22;10370;53.102;18.034;2022-07-05T08:18:06;23.70;99.90
20422;DHT22;10370;53.102;18.034;2022-07-05T08:23:46;23.70;96.30
20422;DHT22;10370;53.102;18.034;2022-07-05T08:29:10;23.40;96.80
20422;DHT22;10370;53.102;18.034;2022-07-05T08:34:31;23.40;97.20
20422;DHT22;10370;53.102;18.034;2022-07-05T08:39:52;23.70;96.40
20422;DHT22;10370;53.102;18.034;2022-07-05T08:45:13;23.80;96.70
20422;DHT22;10370;53.102;18.034;2022-07-05T08:50:36;23.70;94.10
20422;DHT22;10370;53.102;18.034;2022-07-05T08:55:59;23.90;96.10
20422;DHT22;10370;53.102;18.034;2022-07-05T09:01:20;23.90;93.60
20422;DHT22;10370;53.102;18.034;2022-07-05T09:06:42;24.10;93.60
20422;DHT22;10370;53.102;18.034;2022-07-05T09:12:06;24.40;93.20
20422;DHT22;10370;53.102;18.034;2022-07-05T09:17:47;24.30;89.80
20422;DHT22;10370;53.102;18.034;2022-07-05T09:23:11;24.50;92.00
20422;DHT22;10370;53.102;18.034;2022-07-05T09:28:35;24.80;91.60
20422;DHT22;10370;53.102;18.034;2022-07-05T09:34:17;24.90;90.30
20422;DHT22;10370;53.102;18.034;2022-07-05T09:39:39;25.30;92.10
20422;DHT22;10370;53.102;18.034;2022-07-05T09:45:00;25.30;90.10
20422;DHT22;10370;53.102;18.034;2022-07-05T09:50:37;25.50;87.70
20422;DHT22;10370;53.102;18.034;2022-07-05T09:56:18;25.70;89.70
20422;DHT22;10370;53.102;18.034;2022-07-05T10:01:40;25.60;87.80
20422;DHT22;10370;53.102;18.034;2022-07-05T10:07:02;25.40;87.10
20422;DHT22;10370;53.102;18.034;2022-07-05T10:12:23;25.10;86.60
20422;DHT22;10370;53.102;18.034;2022-07-05T10:17:46;24.80;87.30
20422;DHT22;10370;53.102;18.034;2022-07-05T10:23:19;24.60;87.50
20422;DHT22;10370;53.102;18.034;2022-07-05T10:28:41;24.40;87.30
20422;DHT22;10370;53.102;18.034;2022-07-05T10:34:06;24.40;87.50
20422;DHT22;10370;53.102;18.034;2022-07-05T10:39:47;24.40;87.40
20422;DHT22;10370;53.102;18.034;2022-07-05T10:45:33;24.40;87.70
20422;DHT22;10370;53.102;18.034;2022-07-05T10:56:16;25.10;90.70
20422;DHT22;10370;53.102;18.034;2022-07-05T11:01:41;25.00;87.20
20422;DHT22;10370;53.102;18.034;2022-07-05T11:07:03;25.20;88.90
20422;DHT22;10370;53.102;18.034;2022-07-05T11:12:35;25.50;89.60
20422;DHT22;10370;53.102;18.034;2022-07-05T11:18:16;25.40;86.90
20422;DHT22;10370;53.102;18.034;2022-07-05T11:23:36;25.70;85.10
20422;DHT22;10370;53.102;18.034;2022-07-05T11:28:57;25.70;85.00
20422;DHT22;10370;53.102;18.034;2022-07-05T11:34:32;25.80;84.10
20422;DHT22;10370;53.102;18.034;2022-07-05T11:45:31;25.80;85.00
20422;DHT22;10370;53.102;18.034;2022-07-05T11:50:52;25.90;85.40
20422;DHT22;10370;53.102;18.034;2022-07-05T11:56:14;25.80;82.20
20422;DHT22;10370;53.102;18.034;2022-07-05T12:01:43;25.70;82.20
20422;DHT22;10370;53.102;18.034;2022-07-05T12:07:05;25.50;81.20
20422;DHT22;10370;53.102;18.034;2022-07-05T12:12:27;25.60;80.40
20422;DHT22;10370;53.102;18.034;2022-07-05T12:18:07;25.90;83.10
20422;DHT22;10370;53.102;18.034;2022-07-05T12:23:29;26.30;83.60
20422;DHT22;10370;53.102;18.034;2022-07-05T12:28:50;26.50;83.40
20422;DHT22;10370;53.102;18.034;2022-07-05T12:34:17;26.70;80.60
20422;DHT22;10370;53.102;18.034;2022-07-05T12:39:38;26.50;80.20
20422;DHT22;10370;53.102;18.034;2022-07-05T12:45:13;26.70;81.80
20422;DHT22;10370;53.102;18.034;2022-07-05T12:50:48;26.50;77.50
20422;DHT22;10370;53.102;18.034;2022-07-05T12:56:29;26.40;80.60
20422;DHT22;10370;53.102;18.034;2022-07-05T13:02:48;26.20;79.60
20422;DHT22;10370;53.102;18.034;2022-07-05T13:08:10;26.10;79.40
20422;DHT22;10370;53.102;18.034;2022-07-05T13:13:31;25.90;82.40
20422;DHT22;10370;53.102;18.034;2022-07-05T13:18:52;25.90;81.00
20422;DHT22;10370;53.102;18.034;2022-07-05T13:24:13;26.00;77.40
20422;DHT22;10370;53.102;18.034;2022-07-05T13:29:34;25.80;81.30
20422;DHT22;10370;53.102;18.034;2022-07-05T13:34:55;25.60;78.50
20422;DHT22;10370;53.102;18.034;2022-07-05T13:40:16;25.50;80.80
20422;DHT22;10370;53.102;18.034;2022-07-05T13:45:37;25.60;79.10
20422;DHT22;10370;53.102;18.034;2022-07-05T13:50:58;25.70;79.50
20422;DHT22;10370;53.102;18.034;2022-07-05T13:56:19;25.80;79.70
20422;DHT22;10370;53.102;18.034;2022-07-05T14:01:41;25.80;83.00
20422;DHT22;10370;53.102;18.034;2022-07-05T14:07:02;25.70;79.90
20422;DHT22;10370;53.102;18.034;2022-07-05T14:12:23;25.80;81.60
20422;DHT22;10370;53.102;18.034;2022-07-05T14:17:45;25.80;78.50
20422;DHT22;10370;53.102;18.034;2022-07-05T14:23:06;25.80;79.70
20422;DHT22;10370;53.102;18.034;2022-07-05T14:28:27;25.80;80.30
20422;DHT22;10370;53.102;18.034;2022-07-05T14:33:48;25.70;80.30
20422;DHT22;10370;53.102;18.034;2022-07-05T14:39:10;25.70;79.50
20422;DHT22;10370;53.102;18.034;2022-07-05T14:44:38;25.70;79.50
20422;DHT22;10370;53.102;18.034;2022-07-05T14:49:58;25.70;79.90
20422;DHT22;10370;53.102;18.034;2022-07-05T14:55:20;25.60;81.10
20422;DHT22;10370;53.102;18.034;2022-07-05T15:00:40;25.60;84.00
20422;DHT22;10370;53.102;18.034;2022-07-05T15:06:02;25.50;80.30
20422;DHT22;10370;53.102;18.034;2022-07-05T15:11:25;25.30;82.50
20422;DHT22;10370;53.102;18.034;2022-07-05T15:16:46;25.20;82.90
20422;DHT22;10370;53.102;18.034;2022-07-05T15:22:08;25.30;82.20
20422;DHT22;10370;53.102;18.034;2022-07-05T15:27:29;25.30;80.60
20422;DHT22;10370;53.102;18.034;2022-07-05T15:32:53;25.30;83.90
20422;DHT22;10370;53.102;18.034;2022-07-05T15:38:19;25.40;84.80
20422;DHT22;10370;53.102;18.034;2022-07-05T15:43:40;25.10;85.30
20422;DHT22;10370;53.102;18.034;2022-07-05T15:49:01;25.10;86.10
20422;DHT22;10370;53.102;18.034;2022-07-05T15:54:22;25.10;86.60
20422;DHT22;10370;53.102;18.034;2022-07-05T15:59:43;25.00;86.50
20422;DHT22;10370;53.102;18.034;2022-07-05T16:05:05;25.00;88.10
20422;DHT22;10370;53.102;18.034;2022-07-05T16:10:26;25.20;87.40
20422;DHT22;10370;53.102;18.034;2022-07-05T16:15:53;25.40;86.10
20422;DHT22;10370;53.102;18.034;2022-07-05T16:21:33;25.30;87.20
20422;DHT22;10370;53.102;18.034;2022-07-05T16:26:53;25.00;87.40
20422;DHT22;10370;53.102;18.034;2022-07-05T16:32:19;24.80;88.80
20422;DHT22;10370;53.102;18.034;2022-07-05T16:37:41;24.80;90.10
20422;DHT22;10370;53.102;18.034;2022-07-05T16:43:02;24.80;90.30
20422;DHT22;10370;53.102;18.034;2022-07-05T16:48:23;24.80;90.10
20422;DHT22;10370;53.102;18.034;2022-07-05T16:53:46;24.70;90.10
20422;DHT22;10370;53.102;18.034;2022-07-05T16:59:07;24.40;90.60
20422;DHT22;10370;53.102;18.034;2022-07-05T17:04:28;24.30;91.20
20422;DHT22;10370;53.102;18.034;2022-07-05T17:09:50;24.20;92.00
20422;DHT22;10370;53.102;18.034;2022-07-05T17:15:11;24.00;92.40
20422;DHT22;10370;53.102;18.034;2022-07-05T17:20:32;23.70;93.10
20422;DHT22;10370;53.102;18.034;2022-07-05T17:25:53;23.70;93.90
20422;DHT22;10370;53.102;18.034;2022-07-05T17:31:14;23.60;93.50
20422;DHT22;10370;53.102;18.034;2022-07-05T17:36:36;23.50;93.30
20422;DHT22;10370;53.102;18.034;2022-07-05T17:41:57;23.40;94.30
20422;DHT22;10370;53.102;18.034;2022-07-05T17:47:18;23.40;94.20
20422;DHT22;10370;53.102;18.034;2022-07-05T17:52:39;23.50;94.40
20422;DHT22;10370;53.102;18.034;2022-07-05T17:58:00;23.20;93.60
20422;DHT22;10370;53.102;18.034;2022-07-05T18:03:23;23.20;94.20
20422;DHT22;10370;53.102;18.034;2022-07-05T18:08:44;23.10;94.40
20422;DHT22;10370;53.102;18.034;2022-07-05T18:14:05;23.10;94.20
20422;DHT22;10370;53.102;18.034;2022-07-05T18:19:26;23.20;94.90
20422;DHT22;10370;53.102;18.034;2022-07-05T18:24:47;23.20;94.60
20422;DHT22;10370;53.102;18.034;2022-07-05T18:30:09;23.10;94.40
20422;DHT22;10370;53.102;18.034;2022-07-05T18:35:30;23.10;94.20
20422;DHT22;10370;53.102;18.034;2022-07-05T18:40:51;23.10;94.40
20422;DHT22;10370;53.102;18.034;2022-07-05T18:46:12;22.80;94.30
20422;DHT22;10370;53.102;18.034;2022-07-05T18:51:33;22.60;94.90
20422;DHT22;10370;53.102;18.034;2022-07-05T18:57:04;22.50;95.40
20422;DHT22;10370;53.102;18.034;2022-07-05T19:02:31;22.30;96.20
20422;DHT22;10370;53.102;18.034;2022-07-05T19:07:52;22.20;96.40
20422;DHT22;10370;53.102;18.034;2022-07-05T19:13:32;22.00;97.20
20422;DHT22;10370;53.102;18.034;2022-07-05T19:19:02;21.90;98.00
20422;DHT22;10370;53.102;18.034;2022-07-05T19:24:23;21.70;99.00
20422;DHT22;10370;53.102;18.034;2022-07-05T19:29:44;21.50;99.90
20422;DHT22;10370;53.102;18.034;2022-07-05T19:35:05;21.20;99.90
20422;DHT22;10370;53.102;18.034;2022-07-05T19:40:26;20.90;99.90
20422;DHT22;10370;53.102;18.034;2022-07-05T19:45:59;20.80;99.90
20422;DHT22;10370;53.102;18.034;2022-07-05T19:51:20;20.50;99.90
20422;DHT22;10370;53.102;18.034;2022-07-05T19:56:41;20.40;99.90
20422;DHT22;10370;53.102;18.034;2022-07-05T20:02:03;20.20;99.90
20422;DHT22;10370;53.102;18.034;2022-07-05T20:07:24;20.00;99.90
20422;DHT22;10370;53.102;18.034;2022-07-05T20:12:46;19.90;99.90
20422;DHT22;10370;53.102;18.034;2022-07-05T20:18:07;19.80;99.90
20422;DHT22;10370;53.102;18.034;2022-07-05T20:23:32;19.60;99.90
20422;DHT22;10370;53.102;18.034;2022-07-05T20:28:56;19.50;99.90
20422;DHT22;10370;53.102;18.034;2022-07-05T20:34:17;19.40;99.90
20422;DHT22;10370;53.102;18.034;2022-07-05T20:39:38;19.20;99.90
20422;DHT22;10370;53.102;18.034;2022-07-05T20:45:00;19.10;99.90
20422;DHT22;10370;53.102;18.034;2022-07-05T20:50:21;19.00;99.90
20422;DHT22;10370;53.102;18.034;2022-07-05T20:55:42;18.90;99.90
20422;DHT22;10370;53.102;18.034;2022-07-05T21:01:03;18.70;99.90
20422;DHT22;10370;53.102;18.034;2022-07-05T21:06:24;18.70;99.90
20422;DHT22;10370;53.102;18.034;2022-07-05T21:11:45;18.60;99.90
20422;DHT22;10370;53.102;18.034;2022-07-05T21:17:08;18.50;99.90
20422;DHT22;10370;53.102;18.034;2022-07-05T21:22:29;18.50;99.90
20422;DHT22;10370;53.102;18.034;2022-07-05T21:27:50;18.40;99.90
20422;DHT22;10370;53.102;18.034;2022-07-05T21:33:11;18.30;99.90
20422;DHT22;10370;53.102;18.034;2022-07-05T21:38:32;18.20;99.90
20422;DHT22;10370;53.102;18.034;2022-07-05T21:43:53;18.10;99.90
20422;DHT22;10370;53.102;18.034;2022-07-05T21:49:16;18.00;99.90
20422;DHT22;10370;53.102;18.034;2022-07-05T21:54:36;17.90;99.90
20422;DHT22;10370;53.102;18.034;2022-07-05T21:59:58;17.80;99.90
20422;DHT22;10370;53.102;18.034;2022-07-05T22:05:37;17.70;99.90
20422;DHT22;10370;53.102;18.034;2022-07-05T22:10:58;17.50;99.90
20422;DHT22;10370;53.102;18.034;2022-07-05T22:16:38;17.40;99.90
20422;DHT22;10370;53.102;18.034;2022-07-05T22:21:59;17.20;99.90
20422;DHT22;10370;53.102;18.034;2022-07-05T22:27:20;17.10;99.90
20422;DHT22;10370;53.102;18.034;2022-07-05T22:32:41;16.90;99.90
20422;DHT22;10370;53.102;18.034;2022-07-05T22:38:02;16.60;99.90
20422;DHT22;10370;53.102;18.034;2022-07-05T22:43:23;16.60;99.90
20422;DHT22;10370;53.102;18.034;2022-07-05T22:48:44;16.40;99.90
20422;DHT22;10370;53.102;18.034;2022-07-05T22:54:05;16.20;99.90
20422;DHT22;10370;53.102;18.034;2022-07-05T22:59:26;16.10;99.90
20422;DHT22;10370;53.102;18.034;2022-07-05T23:04:47;15.90;99.90
20422;DHT22;10370;53.102;18.034;2022-07-05T23:10:09;15.80;99.90
20422;DHT22;10370;53.102;18.034;2022-07-05T23:15:29;15.70;99.90
20422;DHT22;10370;53.102;18.034;2022-07-05T23:20:50;15.60;99.90
20422;DHT22;10370;53.102;18.034;2022-07-05T23:26:11;15.50;99.90
20422;DHT22;10370;53.102;18.034;2022-07-05T23:31:32;15.40;99.90
20422;DHT22;10370;53.102;18.034;2022-07-05T23:42:15;15.10;99.90
20422;DHT22;10370;53.102;18.034;2022-07-05T23:47:36;15.10;99.90
20422;DHT22;10370;53.102;18.034;2022-07-05T23:52:57;15.00;99.90
20422;DHT22;10370;53.102;18.034;2022-07-05T23:58:18;14.90;99.90
